Terminal Aerodrome Forecast
Issued by NWS

Home | Current Version | Previous Version | Graphics & Text | Print | Product List | Glossary On
Versions: 1 2 3 4 5 6 7 8 9 10 11 12 13 14 15 16 17 18 19 20 21 22 23 24 25 26 27 28 29 30 31
000
FTUS41 KCLE 211700 AAB
TAFFDY
TAF AMD
KFDY 211702Z 2117/2212 23009KT P6SM -SHRA BKN018 OVC100
      TEMPO 2118/2121 3SM -TSRA BR BKN030CB OVC080
     FM212100 23008KT P6SM -SHRA BKN040 BKN120
     FM220300 23005KT 5SM BR VCTS BKN035CB OVC080
      TEMPO 2208/2212 1SM +TSRA BR BKN015CB OVC025=

USA.gov is the U.S. government's official web portal to all federal, state and local government web resources and services.